createdAt,value
2019-03-01T00:01:00.833Z,10.27
2019-03-01T00:03:30.487Z,10.24
2019-03-01T00:06:13.931Z,10.23
2019-03-01T00:09:08.962Z,10.14
2019-03-01T00:12:01.435Z,10.17
2019-03-01T00:14:50.702Z,10.01
2019-03-01T00:17:46.290Z,10.09
2019-03-01T00:20:32.379Z,10.26
2019-03-01T00:23:24.841Z,10.08
2019-03-01T00:26:27.197Z,9.94
2019-03-01T00:29:07.252Z,9.94
2019-03-01T00:32:22.867Z,9.73
2019-03-01T00:35:02.902Z,9.92
2019-03-01T00:37:42.931Z,9.63
2019-03-01T00:40:52.806Z,9.70
2019-03-01T00:43:33.014Z,9.90
2019-03-01T00:46:02.625Z,9.76
2019-03-01T00:48:32.667Z,9.77
2019-03-01T00:51:04.526Z,9.84
2019-03-01T00:53:34.050Z,9.96
2019-03-01T00:56:03.871Z,9.92
2019-03-01T00:58:33.676Z,10.18
2019-03-01T01:01:03.484Z,10.16
2019-03-01T01:03:33.139Z,10.20
2019-03-01T01:06:02.822Z,10.19
2019-03-01T01:08:32.458Z,10.19
2019-03-01T01:11:02.060Z,10.10
2019-03-01T01:13:32.504Z,10.14
2019-03-01T01:16:02.212Z,10.17
2019-03-01T01:18:31.792Z,10.22
2019-03-01T01:21:01.487Z,10.19
2019-03-01T01:23:31.058Z,10.26
2019-03-01T01:26:00.592Z,10.31
2019-03-01T01:28:50.257Z,10.20
2019-03-01T01:31:19.889Z,10.24
2019-03-01T01:33:52.419Z,10.11
2019-03-01T01:36:22.051Z,10.01
2019-03-01T01:38:51.582Z,9.94
2019-03-01T01:41:21.190Z,9.98
2019-03-01T01:43:51.941Z,9.89
2019-03-01T01:46:21.452Z,9.96
2019-03-01T01:48:51.243Z,9.97
2019-03-01T01:51:20.900Z,10.02
2019-03-01T01:53:50.626Z,9.81
2019-03-01T01:56:20.614Z,9.82
2019-03-01T01:58:50.239Z,9.79
2019-03-01T02:01:20.409Z,9.86
2019-03-01T02:03:49.994Z,9.83
2019-03-01T02:06:19.962Z,9.94
2019-03-01T02:08:49.461Z,9.97
2019-03-01T02:11:19.105Z,9.95
2019-03-01T02:13:48.820Z,9.74
2019-03-01T02:16:18.559Z,9.90
2019-03-01T02:18:57.518Z,9.84
2019-03-01T02:21:23.341Z,9.85
2019-03-01T02:23:52.921Z,9.85
2019-03-01T02:26:22.440Z,9.90
2019-03-01T02:28:52.076Z,9.85
2019-03-01T02:31:24.393Z,9.81
2019-03-01T02:33:54.023Z,10.00
2019-03-01T02:36:24.082Z,9.91
2019-03-01T02:38:53.604Z,9.92
2019-03-01T02:41:23.300Z,9.90
2019-03-01T02:43:52.847Z,9.84
2019-03-01T02:46:22.363Z,9.90
2019-03-01T02:48:51.869Z,9.74
2019-03-01T02:51:22.997Z,9.51
2019-03-01T02:53:52.521Z,9.44
2019-03-01T02:56:22.469Z,9.17
2019-03-01T02:58:52.180Z,9.12
2019-03-01T03:01:21.697Z,9.03
2019-03-01T03:03:51.204Z,8.96
2019-03-01T03:06:25.292Z,8.94
2019-03-01T03:08:55.259Z,9.04
2019-03-01T03:11:24.801Z,8.93
2019-03-01T03:13:59.532Z,9.02
2019-03-01T03:16:29.107Z,8.94
2019-03-01T03:18:58.844Z,9.03
2019-03-01T03:21:28.408Z,9.07
2019-03-01T03:23:57.960Z,8.96
2019-03-01T03:26:27.569Z,8.63
2019-03-01T03:28:57.300Z,8.56
2019-03-01T03:31:26.905Z,8.47
2019-03-01T03:33:56.423Z,8.65
2019-03-01T03:36:26.271Z,8.35
2019-03-01T03:38:55.912Z,8.50
2019-03-01T03:41:25.572Z,8.50
2019-03-01T03:44:14.863Z,8.53
2019-03-01T03:46:44.505Z,8.37
2019-03-01T03:49:14.219Z,8.40
2019-03-01T03:51:45.334Z,8.49
2019-03-01T03:54:14.883Z,8.57
2019-03-01T03:56:44.691Z,8.60
2019-03-01T03:59:14.443Z,8.80
2019-03-01T04:01:44.142Z,8.76
2019-03-01T04:04:13.903Z,8.73
2019-03-01T04:06:43.948Z,8.84
2019-03-01T04:09:13.992Z,8.81
2019-03-01T04:11:43.676Z,8.81
2019-03-01T04:14:14.971Z,8.83
2019-03-01T04:16:44.491Z,8.65
2019-03-01T04:19:17.148Z,8.72
2019-03-01T04:21:46.869Z,8.83
2019-03-01T04:24:16.383Z,8.79
2019-03-01T04:26:45.993Z,8.67
2019-03-01T04:29:15.976Z,8.66
2019-03-01T04:31:45.584Z,8.65
2019-03-01T04:34:15.287Z,8.57
2019-03-01T04:36:44.932Z,8.64
2019-03-01T04:39:14.549Z,8.69
2019-03-01T04:41:44.333Z,8.61
2019-03-01T04:44:14.021Z,8.59
2019-03-01T04:46:45.637Z,8.48
2019-03-01T04:49:15.841Z,8.67
2019-03-01T04:51:45.761Z,8.85
2019-03-01T04:54:15.405Z,8.77
2019-03-01T04:56:45.129Z,8.71
2019-03-01T04:59:14.767Z,8.54
2019-03-01T05:01:44.440Z,8.10
2019-03-01T05:04:14.159Z,8.45
2019-03-01T05:06:43.925Z,8.75
2019-03-01T05:09:14.031Z,9.04
2019-03-01T05:11:43.581Z,9.02
2019-03-01T05:14:13.436Z,8.99
2019-03-01T05:16:43.037Z,9.16
2019-03-01T05:19:12.701Z,9.03
2019-03-01T05:21:42.284Z,8.95
2019-03-01T05:24:11.904Z,9.02
2019-03-01T05:26:41.511Z,9.32
2019-03-01T05:29:11.151Z,9.36
2019-03-01T05:31:41.612Z,9.46
2019-03-01T05:34:11.190Z,9.67
2019-03-01T05:36:41.369Z,9.82
2019-03-01T05:39:10.938Z,9.92
2019-03-01T05:41:40.627Z,9.92
2019-03-01T05:44:10.295Z,9.83
2019-03-01T05:46:39.814Z,9.87
2019-03-01T05:49:09.364Z,9.78
2019-03-01T05:51:38.963Z,9.73
2019-03-01T05:54:08.851Z,9.44
2019-03-01T05:56:38.475Z,9.26
2019-03-01T05:59:17.176Z,9.18
2019-03-01T06:01:57.169Z,9.26
2019-03-01T06:04:31.509Z,9.26
2019-03-01T06:07:24.655Z,9.15
2019-03-01T06:10:07.649Z,9.26
2019-03-01T06:13:03.137Z,9.24
2019-03-01T06:15:42.245Z,9.24
2019-03-01T06:18:31.634Z,9.13
2019-03-01T06:21:24.142Z,9.21
2019-03-01T06:24:27.092Z,9.19
2019-03-01T06:27:48.140Z,9.19
2019-03-01T06:30:51.680Z,9.05
2019-03-01T06:33:37.458Z,9.09
2019-03-01T06:36:32.574Z,9.08
2019-03-01T06:39:15.528Z,9.06
2019-03-01T06:42:09.412Z,9.17
2019-03-01T06:45:01.491Z,9.27
2019-03-01T06:47:47.531Z,9.21
2019-03-01T06:50:24.475Z,9.35
2019-03-01T06:52:54.158Z,9.13
2019-03-01T06:55:41.847Z,9.43
2019-03-01T06:58:16.365Z,9.64
2019-03-01T07:00:50.352Z,9.57
2019-03-01T07:03:20.299Z,9.46
2019-03-01T07:05:49.971Z,9.35
2019-03-01T07:08:21.302Z,9.35
2019-03-01T07:10:50.974Z,9.32
2019-03-01T07:13:22.144Z,9.04
2019-03-01T07:15:51.974Z,8.93
2019-03-01T07:18:21.642Z,8.99
2019-03-01T07:20:51.653Z,9.18
2019-03-01T07:23:23.352Z,9.39
2019-03-01T07:25:54.752Z,9.44
2019-03-01T07:28:24.294Z,9.38
2019-03-01T07:30:53.926Z,9.42
2019-03-01T07:33:23.753Z,9.53
2019-03-01T07:35:53.329Z,9.51
2019-03-01T07:38:22.905Z,9.65
2019-03-01T07:40:52.882Z,9.69
2019-03-01T07:43:22.707Z,9.69
2019-03-01T07:45:52.487Z,9.52
2019-03-01T07:48:22.021Z,9.62
2019-03-01T07:50:52.460Z,9.58
2019-03-01T07:53:22.928Z,9.62
2019-03-01T07:55:52.467Z,9.79
2019-03-01T07:58:25.599Z,9.81
2019-03-01T08:00:54.737Z,9.73
2019-03-01T08:03:24.566Z,9.63
2019-03-01T08:05:54.158Z,9.71
2019-03-01T08:08:23.709Z,9.76
2019-03-01T08:10:56.034Z,9.83
2019-03-01T08:13:26.698Z,9.69
2019-03-01T08:15:58.280Z,9.44
2019-03-01T08:18:27.881Z,9.23
2019-03-01T08:20:57.737Z,9.37
2019-03-01T08:23:27.639Z,9.71
2019-03-01T08:25:58.945Z,9.66
2019-03-01T08:28:28.749Z,9.44
2019-03-01T08:30:59.636Z,9.16
2019-03-01T08:33:29.174Z,9.27
2019-03-01T08:35:58.700Z,9.35
2019-03-01T08:38:28.889Z,9.46
2019-03-01T08:40:59.435Z,9.19
2019-03-01T08:43:28.944Z,9.46
2019-03-01T08:45:58.537Z,9.33
2019-03-01T08:48:30.593Z,9.28
2019-03-01T08:50:59.676Z,9.38
2019-03-01T08:53:29.515Z,9.31
2019-03-01T08:55:59.200Z,9.36
2019-03-01T08:58:28.947Z,9.48
2019-03-01T09:00:59.959Z,9.48
2019-03-01T09:03:42.676Z,9.43
2019-03-01T09:06:12.823Z,9.12
2019-03-01T09:08:43.031Z,9.30
2019-03-01T09:11:13.775Z,9.27
2019-03-01T09:13:46.827Z,9.26
2019-03-01T09:16:16.587Z,9.28
2019-03-01T09:18:46.688Z,9.21
2019-03-01T09:21:17.489Z,9.28
2019-03-01T09:23:47.917Z,9.18
2019-03-01T09:26:19.993Z,9.22
2019-03-01T09:28:50.633Z,9.24
2019-03-01T09:31:20.497Z,8.87
2019-03-01T09:33:50.182Z,9.16
2019-03-01T09:36:21.615Z,9.06
2019-03-01T09:38:51.751Z,8.84
2019-03-01T09:41:21.594Z,8.78
2019-03-01T09:43:51.975Z,8.64
2019-03-01T09:46:24.307Z,8.85
2019-03-01T09:48:52.926Z,9.02
2019-03-01T09:51:22.797Z,8.59
2019-03-01T09:53:53.037Z,8.57
2019-03-01T09:56:24.322Z,8.69
2019-03-01T09:58:55.948Z,8.55
2019-03-01T10:01:25.728Z,8.33
2019-03-01T10:03:56.255Z,8.64
2019-03-01T10:06:26.364Z,8.65
2019-03-01T10:08:56.026Z,8.52
2019-03-01T10:11:25.738Z,8.66
2019-03-01T10:13:55.660Z,8.99
2019-03-01T10:16:25.578Z,8.68
2019-03-01T10:18:55.170Z,8.62
2019-03-01T10:21:25.642Z,8.80
2019-03-01T10:23:55.401Z,8.97
2019-03-01T10:26:25.523Z,8.82
2019-03-01T10:28:55.319Z,8.96
2019-03-01T10:31:24.964Z,9.01
2019-03-01T10:33:54.500Z,8.75
2019-03-01T10:36:24.118Z,8.71
2019-03-01T10:38:53.681Z,8.82
2019-03-01T10:41:23.262Z,9.08
2019-03-01T10:43:53.234Z,9.07
2019-03-01T10:46:22.835Z,8.88
2019-03-01T10:48:52.676Z,9.02
2019-03-01T10:51:22.555Z,9.22
2019-03-01T10:53:52.109Z,9.58
2019-03-01T10:56:21.689Z,9.68
2019-03-01T10:58:51.296Z,9.74
2019-03-01T11:01:21.370Z,9.80
2019-03-01T11:03:51.234Z,9.81
2019-03-01T11:06:22.527Z,10.21
2019-03-01T11:08:52.208Z,9.98
2019-03-01T11:11:21.761Z,10.08
2019-03-01T11:13:51.527Z,10.18
2019-03-01T11:16:21.214Z,10.29
2019-03-01T11:18:51.065Z,10.55
2019-03-01T11:21:20.799Z,10.66
2019-03-01T11:23:50.786Z,10.01
2019-03-01T11:26:20.633Z,10.01
2019-03-01T11:28:50.876Z,9.97
2019-03-01T11:31:20.532Z,10.13
2019-03-01T11:33:50.409Z,10.33
2019-03-01T11:36:20.572Z,10.33
2019-03-01T11:38:50.535Z,10.24
2019-03-01T11:41:20.192Z,10.43
2019-03-01T11:43:49.900Z,10.40
2019-03-01T11:46:19.521Z,10.11
2019-03-01T11:48:49.279Z,9.56
2019-03-01T11:51:20.827Z,9.74
2019-03-01T11:53:50.386Z,9.64
2019-03-01T11:56:20.061Z,9.77
2019-03-01T11:58:49.836Z,10.02
2019-03-01T12:01:23.792Z,10.05
2019-03-01T12:03:53.875Z,10.02
2019-03-01T12:06:23.706Z,9.74
2019-03-01T12:08:53.305Z,9.59
2019-03-01T12:11:23.002Z,9.69
2019-03-01T12:13:52.724Z,9.72
2019-03-01T12:16:22.522Z,9.60
2019-03-01T12:18:52.204Z,9.39
2019-03-01T12:21:22.059Z,9.59
2019-03-01T12:23:51.755Z,9.75
2019-03-01T12:26:21.394Z,9.72
2019-03-01T12:28:51.131Z,9.87
2019-03-01T12:31:20.885Z,9.83
2019-03-01T12:33:50.465Z,9.89
2019-03-01T12:36:20.301Z,9.69
2019-03-01T12:38:50.083Z,9.86
2019-03-01T12:41:19.845Z,9.93
2019-03-01T12:43:49.644Z,10.19
2019-03-01T12:46:19.282Z,10.18
2019-03-01T12:48:48.884Z,9.88
2019-03-01T12:51:19.029Z,9.96
2019-03-01T12:53:48.630Z,10.12
2019-03-01T12:56:20.062Z,10.24
2019-03-01T12:58:49.955Z,10.55
2019-03-01T13:01:19.894Z,10.45
2019-03-01T13:03:50.121Z,10.26
2019-03-01T13:06:23.360Z,10.65
2019-03-01T13:08:53.078Z,10.73
2019-03-01T13:11:22.591Z,10.89
2019-03-01T13:13:52.381Z,11.06
2019-03-01T13:16:23.437Z,11.03
2019-03-01T13:18:53.675Z,11.10
2019-03-01T13:21:23.799Z,11.11
2019-03-01T13:23:53.501Z,10.77
2019-03-01T13:26:23.076Z,10.81
2019-03-01T13:28:52.696Z,11.14
2019-03-01T13:31:22.304Z,11.26
2019-03-01T13:33:52.365Z,10.94
2019-03-01T13:36:22.546Z,10.96
2019-03-01T13:38:53.086Z,10.96
2019-03-01T13:41:22.648Z,11.09
2019-03-01T13:43:55.678Z,11.05
2019-03-01T13:46:26.446Z,11.02
2019-03-01T13:48:56.709Z,11.07
2019-03-01T13:51:26.534Z,10.92
2019-03-01T13:53:56.153Z,10.87
2019-03-01T13:56:28.079Z,10.96
2019-03-01T13:58:59.507Z,10.82
2019-03-01T14:01:30.669Z,10.90
2019-03-01T14:04:03.220Z,11.17
2019-03-01T14:06:32.654Z,11.18
2019-03-01T14:09:02.352Z,11.28
2019-03-01T14:11:31.953Z,11.39
2019-03-01T14:14:03.752Z,11.29
2019-03-01T14:16:33.296Z,10.98
2019-03-01T14:19:02.925Z,10.99
2019-03-01T14:21:33.065Z,10.72
2019-03-01T14:24:03.670Z,10.71
2019-03-01T14:26:33.232Z,10.85
2019-03-01T14:29:03.036Z,10.99
2019-03-01T14:31:32.626Z,10.66
2019-03-01T14:34:02.151Z,10.70
2019-03-01T14:36:31.860Z,10.70
2019-03-01T14:39:03.485Z,10.74
2019-03-01T14:41:35.035Z,10.56
2019-03-01T14:44:04.065Z,10.55
2019-03-01T14:46:33.597Z,10.63
2019-03-01T14:49:03.303Z,10.47
2019-03-01T14:51:33.980Z,10.60
2019-03-01T14:54:07.009Z,10.35
2019-03-01T14:56:39.124Z,10.29
2019-03-01T14:59:25.199Z,10.60
2019-03-01T15:02:16.900Z,10.47
2019-03-01T15:04:46.663Z,10.27
2019-03-01T15:07:17.007Z,10.01
2019-03-01T15:09:46.671Z,10.01
2019-03-01T15:12:21.053Z,10.41
2019-03-01T15:14:51.576Z,10.60
2019-03-01T15:17:21.909Z,10.51
2019-03-01T15:20:16.779Z,10.72
2019-03-01T15:22:48.699Z,10.48
2019-03-01T15:25:18.321Z,10.46
2019-03-01T15:27:48.226Z,10.55
2019-03-01T15:30:19.020Z,10.65
2019-03-01T15:32:48.731Z,10.26
2019-03-01T15:35:18.490Z,10.39
2019-03-01T15:37:48.043Z,10.39
2019-03-01T15:40:17.720Z,10.48
2019-03-01T15:42:47.394Z,10.36
2019-03-01T15:45:17.612Z,10.40
2019-03-01T15:47:47.603Z,10.22
2019-03-01T15:50:17.308Z,10.17
2019-03-01T15:52:49.848Z,10.33
2019-03-01T15:55:18.280Z,10.41
2019-03-01T15:57:47.956Z,10.25
2019-03-01T16:00:19.509Z,10.34
2019-03-01T16:02:50.078Z,10.14
2019-03-01T16:05:21.257Z,10.13
2019-03-01T16:07:50.826Z,10.10
2019-03-01T16:10:21.445Z,10.13
2019-03-01T16:12:51.339Z,10.19
2019-03-01T16:15:20.877Z,10.27
2019-03-01T16:17:50.491Z,10.19
2019-03-01T16:20:21.400Z,10.35
2019-03-01T16:22:53.805Z,10.29
2019-03-01T16:25:22.411Z,10.18
2019-03-01T16:27:54.271Z,10.18
2019-03-01T16:30:23.790Z,10.15
2019-03-01T16:32:53.644Z,10.20
2019-03-01T16:35:23.622Z,10.17
2019-03-01T16:37:57.916Z,9.91
2019-03-01T16:40:26.601Z,10.18
2019-03-01T16:42:57.950Z,10.27
2019-03-01T16:45:28.050Z,10.04
2019-03-01T16:47:57.714Z,10.13
2019-03-01T16:50:29.088Z,10.16
2019-03-01T16:53:04.298Z,10.16
2019-03-01T16:55:32.422Z,9.99
2019-03-01T16:58:06.919Z,10.23
2019-03-01T17:00:34.102Z,10.39
2019-03-01T17:03:18.117Z,10.28
2019-03-01T17:05:48.430Z,10.08
2019-03-01T17:08:18.152Z,9.97
2019-03-01T17:10:48.171Z,9.84
2019-03-01T17:13:17.819Z,9.93
2019-03-01T17:15:48.493Z,10.01
2019-03-01T17:18:19.412Z,9.86
2019-03-01T17:20:50.436Z,9.97
2019-03-01T17:23:19.987Z,9.90
2019-03-01T17:25:49.651Z,9.90
2019-03-01T17:28:23.546Z,10.00
2019-03-01T17:30:51.784Z,10.06
2019-03-01T17:33:23.030Z,9.99
2019-03-01T17:35:52.642Z,10.06
2019-03-01T17:38:22.246Z,10.04
2019-03-01T17:40:51.814Z,9.78
2019-03-01T17:43:21.440Z,9.90
2019-03-01T17:45:54.425Z,9.89
2019-03-01T17:48:22.440Z,10.08
2019-03-01T17:50:51.987Z,10.19
2019-03-01T17:53:21.586Z,10.14
2019-03-01T17:56:10.866Z,9.85
2019-03-01T17:58:40.369Z,9.86
2019-03-01T18:01:10.111Z,9.95
2019-03-01T18:03:39.664Z,10.05
2019-03-01T18:06:09.239Z,9.96
2019-03-01T18:08:39.611Z,10.06
2019-03-01T18:11:10.425Z,10.25
2019-03-01T18:13:40.033Z,10.17
2019-03-01T18:16:09.578Z,10.08
2019-03-01T18:18:39.660Z,10.10
2019-03-01T18:21:10.093Z,10.18
2019-03-01T18:23:40.665Z,10.11
2019-03-01T18:26:10.384Z,10.20
2019-03-01T18:28:42.926Z,10.03
2019-03-01T18:31:12.512Z,9.98
2019-03-01T18:33:44.948Z,10.05
2019-03-01T18:36:14.591Z,10.11
2019-03-01T18:38:44.168Z,9.89
2019-03-01T18:41:13.822Z,9.99
2019-03-01T18:43:45.911Z,9.91
2019-03-01T18:46:19.185Z,10.06
2019-03-01T18:48:46.728Z,10.11
2019-03-01T18:51:16.888Z,9.83
2019-03-01T18:53:46.528Z,9.71
2019-03-01T18:56:16.104Z,9.82
2019-03-01T18:58:48.857Z,9.72
2019-03-01T19:01:17.079Z,9.53
2019-03-01T19:03:46.725Z,9.58
2019-03-01T19:06:17.204Z,9.57
2019-03-01T19:08:46.859Z,9.54
2019-03-01T19:11:16.924Z,9.53
2019-03-01T19:13:46.991Z,9.61
2019-03-01T19:16:16.599Z,9.51
2019-03-01T19:18:48.252Z,9.48
2019-03-01T19:21:18.212Z,9.53
2019-03-01T19:23:47.921Z,9.41
2019-03-01T19:26:18.550Z,9.54
2019-03-01T19:28:48.146Z,9.54
2019-03-01T19:31:17.856Z,9.37
2019-03-01T19:33:47.426Z,9.42
2019-03-01T19:36:17.015Z,9.54
2019-03-01T19:38:46.681Z,9.47
2019-03-01T19:41:16.319Z,9.46
2019-03-01T19:43:54.296Z,9.52
2019-03-01T19:46:17.210Z,9.51
2019-03-01T19:48:47.095Z,9.26
2019-03-01T19:51:16.826Z,9.25
2019-03-01T19:53:46.440Z,9.35
2019-03-01T19:56:18.989Z,9.42
2019-03-01T19:58:48.106Z,9.35
2019-03-01T20:01:18.709Z,9.47
2019-03-01T20:03:48.632Z,9.42
2019-03-01T20:06:18.232Z,9.30
2019-03-01T20:08:47.822Z,9.10
2019-03-01T20:11:26.830Z,9.00
2019-03-01T20:13:56.009Z,9.09
2019-03-01T20:16:25.732Z,9.15
2019-03-01T20:18:57.353Z,9.28
2019-03-01T20:21:26.905Z,9.22
2019-03-01T20:23:56.434Z,9.34
2019-03-01T20:26:26.810Z,9.30
2019-03-01T20:28:57.134Z,9.16
2019-03-01T20:31:26.749Z,8.93
2019-03-01T20:33:58.627Z,8.88
2019-03-01T20:36:27.824Z,8.78
2019-03-01T20:38:57.762Z,8.87
2019-03-01T20:41:28.291Z,8.93
2019-03-01T20:43:58.099Z,8.85
2019-03-01T20:46:27.817Z,8.72
2019-03-01T20:48:57.381Z,8.66
2019-03-01T20:51:27.975Z,8.71
2019-03-01T20:53:57.778Z,8.74
2019-03-01T20:56:27.549Z,8.62
2019-03-01T20:58:57.091Z,8.74
2019-03-01T21:01:27.780Z,8.78
2019-03-01T21:03:57.546Z,8.84
2019-03-01T21:06:27.282Z,8.92
2019-03-01T21:08:57.093Z,9.05
2019-03-01T21:11:26.738Z,9.05
2019-03-01T21:13:56.772Z,9.29
2019-03-01T21:16:26.368Z,9.13
2019-03-01T21:18:56.123Z,9.17
2019-03-01T21:21:28.825Z,9.19
2019-03-01T21:23:57.054Z,9.24
2019-03-01T21:26:27.043Z,9.10
2019-03-01T21:28:57.234Z,9.19
2019-03-01T21:31:26.887Z,9.10
2019-03-01T21:33:59.452Z,8.98
2019-03-01T21:36:28.092Z,9.11
2019-03-01T21:38:57.758Z,9.07
2019-03-01T21:41:27.613Z,8.95
2019-03-01T21:43:57.280Z,9.07
2019-03-01T21:46:30.558Z,9.13
2019-03-01T21:49:00.500Z,9.14
2019-03-01T21:51:34.814Z,9.05
2019-03-01T21:54:04.582Z,8.98
2019-03-01T21:56:34.746Z,8.91
2019-03-01T21:59:04.285Z,9.12
2019-03-01T22:01:33.869Z,9.00
2019-03-01T22:04:03.686Z,9.01
2019-03-01T22:06:33.808Z,8.91
2019-03-01T22:09:06.115Z,8.88
2019-03-01T22:11:36.242Z,8.81
2019-03-01T22:14:07.609Z,9.00
2019-03-01T22:16:39.379Z,8.99
2019-03-01T22:19:08.914Z,9.01
2019-03-01T22:21:38.933Z,9.09
2019-03-01T22:24:08.540Z,9.20
2019-03-01T22:26:38.694Z,9.20
2019-03-01T22:29:08.926Z,8.91
2019-03-01T22:31:41.825Z,8.93
2019-03-01T22:34:11.624Z,8.73
2019-03-01T22:36:41.814Z,8.93
2019-03-01T22:39:13.677Z,8.96
2019-03-01T22:41:45.316Z,8.93
2019-03-01T22:44:15.072Z,8.85
2019-03-01T22:46:44.942Z,8.71
2019-03-01T22:49:15.202Z,8.71
2019-03-01T22:51:45.049Z,8.52
2019-03-01T22:54:17.844Z,8.61
2019-03-01T22:56:48.503Z,8.45
2019-03-01T22:59:19.094Z,8.72
2019-03-01T23:01:49.114Z,8.81
2019-03-01T23:04:21.202Z,8.64
2019-03-01T23:06:51.596Z,8.74
2019-03-01T23:09:22.919Z,8.76
2019-03-01T23:11:54.310Z,8.78
2019-03-01T23:14:27.398Z,8.91
2019-03-01T23:16:55.736Z,8.84
2019-03-01T23:19:25.586Z,8.85
2019-03-01T23:21:55.507Z,8.88
2019-03-01T23:24:25.197Z,9.05
2019-03-01T23:26:56.868Z,9.02
2019-03-01T23:29:28.907Z,8.95
2019-03-01T23:31:58.888Z,8.95
2019-03-01T23:34:31.119Z,8.80
2019-03-01T23:37:03.539Z,8.89
2019-03-01T23:39:32.341Z,8.77
2019-03-01T23:42:03.399Z,8.70
2019-03-01T23:44:35.146Z,8.73
2019-03-01T23:47:05.154Z,8.75
2019-03-01T23:49:35.003Z,8.91
2019-03-01T23:52:06.515Z,8.85
2019-03-01T23:54:36.017Z,8.79
2019-03-01T23:57:06.988Z,8.81
2019-03-01T23:59:36.768Z,8.68
